createdAt,value
2023-02-05T00:00:40.923Z,1.9
2023-02-05T00:04:40.535Z,1.93
2023-02-05T00:08:40.670Z,1.97
2023-02-05T00:12:40.534Z,1.9
2023-02-05T00:16:40.358Z,2
2023-02-05T00:20:40.472Z,2.07
2023-02-05T00:24:40.579Z,1.8
2023-02-05T00:28:40.752Z,2.23
2023-02-05T00:32:40.808Z,2.17
2023-02-05T00:36:40.592Z,2.43
2023-02-05T00:40:40.719Z,2.43
2023-02-05T00:44:40.515Z,2.2
2023-02-05T00:48:40.523Z,2.63
2023-02-05T00:52:40.591Z,2.5
2023-02-05T00:56:40.548Z,3.07
2023-02-05T01:00:40.524Z,2.4
2023-02-05T01:04:40.559Z,2.63
2023-02-05T01:08:40.595Z,2.43
2023-02-05T01:12:40.439Z,2.83
2023-02-05T01:16:40.537Z,1.9
2023-02-05T01:20:40.453Z,2.53
2023-02-05T01:24:40.514Z,2.33
2023-02-05T01:28:40.548Z,2.4
2023-02-05T01:32:40.741Z,1.87
2023-02-05T01:36:40.520Z,2.5
2023-02-05T01:40:40.478Z,2.3
2023-02-05T01:44:40.488Z,2.6
2023-02-05T01:48:40.446Z,2.37
2023-02-05T01:52:40.446Z,1.87
2023-02-05T01:56:40.371Z,1.73
2023-02-05T02:00:40.728Z,2.13
2023-02-05T02:04:40.742Z,2.1
2023-02-05T02:08:39.961Z,2.6
2023-02-05T02:12:41.034Z,2.87
2023-02-05T02:16:40.870Z,2.03
2023-02-05T02:20:40.645Z,2.37
2023-02-05T02:24:40.521Z,2.03
2023-02-05T02:28:40.588Z,2.7
2023-02-05T02:32:40.486Z,2.53
2023-02-05T02:36:40.722Z,2.7
2023-02-05T02:40:40.461Z,2.53
2023-02-05T02:44:40.558Z,2.53
2023-02-05T02:48:40.882Z,2.3
2023-02-05T02:52:40.473Z,2.23
2023-02-05T02:56:40.568Z,2.77
2023-02-05T03:00:40.635Z,2.63
2023-02-05T03:04:40.610Z,2.2
2023-02-05T03:08:40.577Z,2.27
2023-02-05T03:12:40.564Z,1.8
2023-02-05T03:16:40.303Z,2.27
2023-02-05T03:20:41.104Z,1.93
2023-02-05T03:24:39.775Z,2.17
2023-02-05T03:28:40.371Z,2.03
2023-02-05T03:32:39.956Z,2.83
2023-02-05T03:36:40.311Z,1.9
2023-02-05T03:40:41.249Z,2.3
2023-02-05T03:44:40.507Z,2.2
2023-02-05T03:48:40.477Z,1.87
2023-02-05T03:52:41.052Z,3.17
2023-02-05T03:56:40.608Z,2.17
2023-02-05T04:00:40.462Z,2.1
2023-02-05T04:04:40.721Z,2.27
2023-02-05T04:08:39.746Z,1.8
2023-02-05T04:12:40.477Z,1.6
2023-02-05T04:16:40.825Z,2.17
2023-02-05T04:20:40.447Z,2.23
2023-02-05T04:24:40.457Z,2.3
2023-02-05T04:28:40.823Z,2.5
2023-02-05T04:32:41.208Z,2.63
2023-02-05T04:36:40.954Z,2.5
2023-02-05T04:40:40.567Z,3.1
2023-02-05T04:44:40.544Z,1.93
2023-02-05T04:48:40.332Z,2.1
2023-02-05T04:52:40.792Z,1.83
2023-02-05T04:56:40.336Z,2.03
2023-02-05T05:00:40.943Z,2.4
2023-02-05T05:04:43.107Z,2.03
2023-02-05T05:08:40.496Z,1.8
2023-02-05T05:12:41.026Z,1.93
2023-02-05T05:16:40.414Z,1.57
2023-02-05T05:20:42.623Z,2.03
2023-02-05T05:24:40.522Z,2.17
2023-02-05T05:28:40.489Z,1.83
2023-02-05T05:32:40.527Z,2.1
2023-02-05T05:36:40.503Z,2.83
2023-02-05T05:40:40.529Z,2
2023-02-05T05:44:39.832Z,2.5
2023-02-05T05:48:41.284Z,2.7
2023-02-05T05:52:40.428Z,2.27
2023-02-05T05:56:40.645Z,2.27
2023-02-05T06:00:40.702Z,2.03
2023-02-05T06:04:40.678Z,2.27
2023-02-05T06:08:40.600Z,2.1
2023-02-05T06:12:40.931Z,2.73
2023-02-05T06:16:40.405Z,2.37
2023-02-05T06:20:40.723Z,2.13
2023-02-05T06:24:40.849Z,3.13
2023-02-05T06:28:40.549Z,1.9
2023-02-05T06:32:40.573Z,2.7
2023-02-05T06:36:40.311Z,3.17
2023-02-05T06:40:40.315Z,2.4
2023-02-05T06:44:40.473Z,4.2
2023-02-05T06:48:40.460Z,4.73
2023-02-05T06:52:40.862Z,3.63
2023-02-05T06:56:40.549Z,3.5
2023-02-05T07:00:40.565Z,3.13
2023-02-05T07:04:40.316Z,2.83
2023-02-05T07:08:40.506Z,3.43
2023-02-05T07:12:40.824Z,3.83
2023-02-05T07:16:40.525Z,3.13
2023-02-05T07:20:40.334Z,3.37
2023-02-05T07:24:39.850Z,3.7
2023-02-05T07:28:41.017Z,4.07
2023-02-05T07:32:40.853Z,6.23
2023-02-05T07:36:40.508Z,5.3
2023-02-05T07:40:40.491Z,6.23
2023-02-05T07:44:40.460Z,6.43
2023-02-05T07:48:41.078Z,6
2023-02-05T07:52:40.521Z,5.77
2023-02-05T07:56:39.883Z,5
2023-02-05T08:00:40.442Z,4.6
2023-02-05T08:04:40.452Z,3.67
2023-02-05T08:08:40.472Z,3.97
2023-02-05T08:12:40.529Z,3.6
2023-02-05T08:16:40.563Z,3.63
2023-02-05T08:20:40.081Z,3.23
2023-02-05T08:24:41.083Z,3.1
2023-02-05T08:28:40.520Z,2.9
2023-02-05T08:32:40.457Z,3.23
2023-02-05T08:36:40.467Z,3.8
2023-02-05T08:40:40.498Z,4.27
2023-02-05T08:44:40.615Z,2.93
2023-02-05T08:48:40.461Z,3.33
2023-02-05T08:52:40.640Z,7.47
2023-02-05T08:56:40.528Z,6.97
2023-02-05T09:00:40.563Z,7.97
2023-02-05T09:04:40.270Z,4.47
2023-02-05T09:08:40.687Z,3.1
2023-02-05T09:12:40.474Z,3.17
2023-02-05T09:16:40.447Z,3.97
2023-02-05T09:20:40.488Z,10.53
2023-02-05T09:24:40.561Z,4.53
2023-02-05T09:28:40.533Z,4.43
2023-02-05T09:32:40.622Z,2.9
2023-02-05T09:36:40.595Z,2.83
2023-02-05T09:40:41.019Z,2.8
2023-02-05T09:44:40.259Z,2.5
2023-02-05T09:48:40.533Z,3.17
2023-02-05T09:52:40.670Z,2.5
2023-02-05T09:56:40.361Z,2.67
2023-02-05T10:00:40.523Z,3.23
2023-02-05T10:04:40.548Z,2.47
2023-02-05T10:08:40.496Z,2.5
2023-02-05T10:12:39.962Z,2.6
2023-02-05T10:16:40.347Z,2.63
2023-02-05T10:20:40.462Z,2.73
2023-02-05T10:24:40.638Z,2.23
2023-02-05T10:28:40.455Z,2.17
2023-02-05T10:32:40.518Z,2.77
2023-02-05T10:36:40.512Z,2.87
2023-02-05T10:40:40.481Z,3.17
2023-02-05T10:44:40.114Z,3.13
2023-02-05T10:48:40.830Z,2.23
2023-02-05T10:52:40.488Z,2.17
2023-02-05T10:56:41.146Z,3.13
2023-02-05T11:00:41.029Z,2.03
2023-02-05T11:04:40.248Z,1.93
2023-02-05T11:08:40.983Z,2.3
2023-02-05T11:12:40.149Z,1.93
2023-02-05T11:16:41.157Z,2.6
2023-02-05T11:20:40.429Z,2.5
2023-02-05T11:24:40.563Z,2.03
2023-02-05T11:28:40.539Z,2.4
2023-02-05T11:32:39.924Z,2.37
2023-02-05T11:36:40.407Z,1.8
2023-02-05T11:40:40.614Z,2.73
2023-02-05T11:44:40.661Z,2.6
2023-02-05T11:48:40.317Z,2.7
2023-02-05T11:52:40.889Z,2.33
2023-02-05T11:56:41.221Z,3
2023-02-05T12:00:40.682Z,2.4
2023-02-05T12:04:40.354Z,1.97
2023-02-05T12:08:40.884Z,2.03
2023-02-05T12:12:40.488Z,2.6
2023-02-05T12:16:40.246Z,2.7
2023-02-05T12:20:40.579Z,2.47
2023-02-05T12:24:40.109Z,1.97
2023-02-05T12:28:40.648Z,1.73
2023-02-05T12:32:41.058Z,2.33
2023-02-05T12:36:40.634Z,3.23
2023-02-05T12:40:40.346Z,1.4
2023-02-05T12:44:40.691Z,2
2023-02-05T12:48:40.309Z,1.7
2023-02-05T12:52:40.864Z,1.6
2023-02-05T12:56:40.394Z,2.13
2023-02-05T13:00:40.810Z,1.47
2023-02-05T13:04:41.258Z,2.13
2023-02-05T13:08:40.517Z,1.77
2023-02-05T13:12:40.439Z,2.1
2023-02-05T13:16:40.441Z,2
2023-02-05T13:20:40.984Z,1.87
2023-02-05T13:24:40.269Z,1.27
2023-02-05T13:28:40.972Z,1.6
2023-02-05T13:32:41.174Z,2.5
2023-02-05T13:36:40.391Z,1.8
2023-02-05T13:40:41.049Z,2.1
2023-02-05T13:44:40.563Z,2.63
2023-02-05T13:48:41.056Z,1.9
2023-02-05T13:52:40.970Z,1.97
2023-02-05T13:56:40.533Z,1.8
2023-02-05T14:00:40.656Z,2.4
2023-02-05T14:04:40.455Z,2.27
2023-02-05T14:08:40.856Z,1.77
2023-02-05T14:12:41.217Z,1.73
2023-02-05T14:16:40.547Z,4.3
2023-02-05T14:20:40.505Z,1.6
2023-02-05T14:24:40.616Z,1.7
2023-02-05T14:28:40.645Z,1.73
2023-02-05T14:32:40.034Z,1.3
2023-02-05T14:36:40.316Z,1.2
2023-02-05T14:40:39.373Z,1.27
2023-02-05T14:44:41.054Z,1.3
2023-02-05T14:48:40.502Z,1.23
2023-02-05T14:52:40.458Z,1.33
2023-02-05T14:56:40.437Z,1.33
2023-02-05T15:00:41.008Z,1.47
2023-02-05T15:04:40.563Z,1.53
2023-02-05T15:08:40.479Z,1.23
2023-02-05T15:12:40.555Z,1.2
2023-02-05T15:16:41.202Z,2.13
2023-02-05T15:20:40.572Z,2
2023-02-05T15:24:40.613Z,1.73
2023-02-05T15:28:40.611Z,2.13
2023-02-05T15:32:40.648Z,2.5
2023-02-05T15:36:40.449Z,2.07
2023-02-05T15:40:40.518Z,2.1
2023-02-05T15:44:40.786Z,2.17
2023-02-05T15:48:40.746Z,1.8
2023-02-05T15:52:40.491Z,1.1
2023-02-05T15:56:40.930Z,1.97
2023-02-05T16:00:40.595Z,2.33
2023-02-05T16:04:40.862Z,2.4
2023-02-05T16:08:39.718Z,3.13
2023-02-05T16:12:40.514Z,4.37
2023-02-05T16:16:41.080Z,4.53
2023-02-05T16:20:40.437Z,3.57
2023-02-05T16:24:40.820Z,2.5
2023-02-05T16:28:40.597Z,2.7
2023-02-05T16:32:40.446Z,2.8
2023-02-05T16:36:40.476Z,2.13
2023-02-05T16:40:40.604Z,3.3
2023-02-05T16:44:40.839Z,3.03
2023-02-05T16:48:40.758Z,3.9
2023-02-05T16:52:40.577Z,3.23
2023-02-05T16:56:39.441Z,3.57
2023-02-05T17:00:40.816Z,4.83
2023-02-05T17:04:40.639Z,4
2023-02-05T17:08:40.479Z,4.27
2023-02-05T17:12:40.448Z,4.8
2023-02-05T17:16:40.598Z,4.27
2023-02-05T17:20:40.478Z,4.07
2023-02-05T17:24:40.460Z,2.8
2023-02-05T17:28:41.926Z,3.47
2023-02-05T17:32:40.511Z,3.7
2023-02-05T17:36:40.577Z,4.13
2023-02-05T17:40:40.630Z,7.37
2023-02-05T17:44:40.819Z,5.8
2023-02-05T17:48:40.667Z,4.6
2023-02-05T17:52:40.413Z,5.07
2023-02-05T17:56:40.746Z,5.53
2023-02-05T18:00:41.225Z,5.07
2023-02-05T18:04:41.167Z,4.87
2023-02-05T18:08:40.456Z,5.2
2023-02-05T18:12:40.817Z,4.2
2023-02-05T18:16:40.635Z,3.37
2023-02-05T18:20:40.482Z,3.8
2023-02-05T18:24:40.445Z,4.9
2023-02-05T18:28:40.442Z,4.37
2023-02-05T18:32:40.494Z,4.93
2023-02-05T18:36:40.578Z,6.13
2023-02-05T18:40:40.509Z,5.83
2023-02-05T18:44:40.467Z,6.97
2023-02-05T18:48:40.476Z,5.97
2023-02-05T18:52:40.510Z,6.47
2023-02-05T18:56:40.846Z,5.73
2023-02-05T19:00:41.138Z,7.27
2023-02-05T19:04:40.090Z,6.23
2023-02-05T19:08:40.425Z,5.47
2023-02-05T19:12:40.578Z,5.6
2023-02-05T19:16:40.541Z,6.73
2023-02-05T19:20:40.290Z,5.87
2023-02-05T19:24:40.445Z,6.87
2023-02-05T19:28:41.225Z,6.03
2023-02-05T19:32:40.997Z,6.67
2023-02-05T19:36:40.229Z,5.93
2023-02-05T19:40:41.216Z,7.23
2023-02-05T19:44:40.712Z,7.63
2023-02-05T19:48:40.618Z,6.83
2023-02-05T19:52:40.678Z,6.93
2023-02-05T19:56:40.867Z,11.37
2023-02-05T20:00:40.666Z,8.13
2023-02-05T20:04:40.774Z,8.03
2023-02-05T20:08:40.532Z,8.67
2023-02-05T20:12:40.931Z,7.63
2023-02-05T20:16:40.313Z,8.9
2023-02-05T20:20:40.803Z,8
2023-02-05T20:24:40.452Z,8.57
2023-02-05T20:28:40.770Z,7.97
2023-02-05T20:32:40.687Z,8.3
2023-02-05T20:36:40.573Z,6.97
2023-02-05T20:40:41.066Z,8
2023-02-05T20:44:40.574Z,8.07
2023-02-05T20:48:41.122Z,8.63
2023-02-05T20:52:40.681Z,7.9
2023-02-05T20:56:40.557Z,8.2
2023-02-05T21:00:40.485Z,8.73
2023-02-05T21:04:40.543Z,8.43
2023-02-05T21:08:40.574Z,8.37
2023-02-05T21:12:40.481Z,8
2023-02-05T21:16:40.497Z,7.63
2023-02-05T21:20:40.762Z,7.67
2023-02-05T21:24:39.515Z,6.9
2023-02-05T21:28:40.468Z,7.13
2023-02-05T21:32:40.691Z,7.43
2023-02-05T21:36:40.489Z,7.9
2023-02-05T21:40:40.542Z,6.4
2023-02-05T21:44:40.463Z,8.03
2023-02-05T21:48:40.682Z,7.13
2023-02-05T21:52:40.499Z,5.67
2023-02-05T21:56:39.579Z,7.67
2023-02-05T22:00:40.600Z,6.23
2023-02-05T22:04:40.474Z,6.87
2023-02-05T22:08:40.503Z,6.6
2023-02-05T22:12:40.552Z,6.97
2023-02-05T22:16:40.507Z,7.4
2023-02-05T22:20:40.502Z,7
2023-02-05T22:24:40.616Z,6.57
2023-02-05T22:28:40.597Z,6.57
2023-02-05T22:32:40.434Z,6.8
2023-02-05T22:36:40.469Z,6.6
2023-02-05T22:40:40.434Z,6.87
2023-02-05T22:44:41.161Z,6.33
2023-02-05T22:48:40.729Z,6.83
2023-02-05T22:52:40.523Z,6.3
2023-02-05T22:56:40.505Z,5.77
2023-02-05T23:00:40.599Z,7.8
2023-02-05T23:16:40.382Z,8.83
2023-02-05T23:20:40.459Z,7.53
2023-02-05T23:24:40.344Z,8
2023-02-05T23:28:40.467Z,6.5
2023-02-05T23:32:40.799Z,7.07
2023-02-05T23:36:40.224Z,7.33
2023-02-05T23:40:39.371Z,8.1
2023-02-05T23:44:40.267Z,7.53
2023-02-05T23:48:41.284Z,7
2023-02-05T23:52:40.620Z,7.83
2023-02-05T23:56:40.488Z,5.9
